Terminal Aerodrome Forecast
Issued by NWS

Home | Current Version | Previous Version | Text Only | Print | Product List | Glossary On
Versions: 1 2 3 4 5 6 7 8 9 10 11 12 13 14 15 16 17
000
FTUS43 KLSX 231700
TAFUIN
TAF
KUIN 231722Z 2318/2418 13013KT P6SM BKN100
     FM232100 12014G21KT P6SM BKN100
     FM240300 14014KT P6SM SCT150 WS020/18045KT
     FM241500 16015G25KT 6SM -SHRA VCTS BKN040CB=

USA.gov is the U.S. government's official web portal to all federal, state and local government web resources and services.